Time;durP1;ratioP1;P1;durP2;ratioP2;P2;SDS_P1;SDS_P2;PMS_P1;PMS_P2;Temp;Humidity;BMP_temperature;BMP_pressure;BME280_temperature;BME280_humidity;BME280_pressure;Samples;Min_cycle;Max_cycle;Signal;HPM_P1;HPM_P2
2022/05/10 00:00:50;;;;;;;6.82;4.38;;;;;;;22.09;45.18;102128.28;5059422;28;20074;-52
2022/05/10 00:03:18;;;;;;;7.90;4.30;;;;;;;22.10;45.17;102121.03;5057018;28;20053;-52
2022/05/10 00:05:45;;;;;;;6.00;4.22;;;;;;;22.09;45.32;102122.03;5061799;28;20346;-52
2022/05/10 00:08:15;;;;;;;5.72;3.70;;;;;;;22.07;45.14;102111.41;5061160;28;20051;-51
2022/05/10 00:10:44;;;;;;;7.20;4.03;;;;;;;22.06;45.37;102104.28;5060385;28;20059;-53
2022/05/10 00:13:11;;;;;;;7.00;3.90;;;;;;;22.06;45.44;102103.44;5059222;28;20124;-52
2022/05/10 00:15:39;;;;;;;6.32;3.88;;;;;;;22.05;45.51;102094.47;5059093;28;20044;-52
2022/05/10 00:18:11;;;;;;;6.10;3.42;;;;;;;22.05;45.30;102091.78;5055323;28;20044;-51
2022/05/10 00:20:39;;;;;;;6.15;3.72;;;;;;;22.04;44.99;102086.53;5057802;28;20044;-53
2022/05/10 00:23:06;;;;;;;7.22;4.10;;;;;;;22.03;45.67;102080.31;5042581;28;20044;-53
2022/05/10 00:25:32;;;;;;;6.00;4.13;;;;;;;22.02;45.54;102081.28;5058041;28;20047;-49
2022/05/10 00:28:00;;;;;;;6.15;3.92;;;;;;;22.00;45.57;102086.00;5059316;28;20051;-52
2022/05/10 00:30:27;;;;;;;7.40;3.85;;;;;;;22.00;45.61;102087.84;5058348;28;20435;-49
2022/05/10 00:32:55;;;;;;;5.30;3.55;;;;;;;22.00;45.57;102085.16;5061623;28;20120;-54
2022/05/10 00:35:24;;;;;;;8.15;3.97;;;;;;;21.99;45.62;102081.59;5057402;28;20127;-55
2022/05/10 00:37:55;;;;;;;6.05;3.83;;;;;;;21.99;45.54;102072.63;5057568;28;20059;-52
2022/05/10 00:40:25;;;;;;;6.03;4.28;;;;;;;21.98;45.71;102074.47;5057875;28;20048;-54
2022/05/10 00:42:57;;;;;;;8.23;3.95;;;;;;;21.98;45.47;102071.78;5058125;28;20411;-55
2022/05/10 00:45:35;;;;;;;7.97;4.40;;;;;;;21.96;45.65;102071.09;5058500;28;20127;-53
2022/05/10 00:48:25;;;;;;;6.75;3.92;;;;;;;21.94;45.68;102073.91;5058008;28;20138;-53
2022/05/10 00:51:01;;;;;;;6.13;4.07;;;;;;;21.95;45.66;102074.81;5066612;28;20525;-53
2022/05/10 00:53:49;;;;;;;6.75;3.92;;;;;;;21.93;45.66;102066.84;5058661;28;20075;-54
2022/05/10 00:56:34;;;;;;;6.85;4.50;;;;;;;21.93;45.98;102061.44;5061291;28;20040;-51
2022/05/10 00:59:22;;;;;;;8.13;4.00;;;;;;;21.92;45.92;102065.13;5063449;28;20106;-52
2022/05/10 01:01:57;;;;;;;5.18;3.38;;;;;;;21.92;45.73;102059.75;5063243;28;20131;-51
2022/05/10 01:04:36;;;;;;;6.22;3.80;;;;;;;21.92;45.80;102064.28;5070364;28;20052;-53
2022/05/10 01:07:13;;;;;;;5.70;3.90;;;;;;;21.92;45.74;102062.44;5059732;28;20339;-52
2022/05/10 01:09:46;;;;;;;6.00;3.85;;;;;;;21.92;46.12;102056.19;5070679;28;20327;-52
2022/05/10 01:12:28;;;;;;;6.72;3.85;;;;;;;21.91;45.81;102051.81;5070204;28;20042;-48
2022/05/10 01:15:09;;;;;;;6.40;3.90;;;;;;;21.90;45.91;102048.22;5068634;28;20297;-53
2022/05/10 01:17:36;;;;;;;7.70;4.10;;;;;;;21.91;45.59;102043.72;5066697;28;20486;-53
2022/05/10 01:20:04;;;;;;;6.25;3.92;;;;;;;21.91;45.87;102038.31;5069737;28;20155;-52
2022/05/10 01:23:14;;;;;;;6.70;4.05;;;;;;;21.89;46.03;102038.44;5065816;28;20718;-50
2022/05/10 01:25:49;;;;;;;6.20;3.80;;;;;;;21.89;46.26;102035.75;5069280;28;20052;-50
2022/05/10 01:28:26;;;;;;;6.93;4.18;;;;;;;21.88;46.28;102031.34;5068689;28;20064;-54
2022/05/10 01:30:54;;;;;;;5.70;4.10;;;;;;;21.89;46.20;102030.34;5068362;28;20048;-53
2022/05/10 01:33:30;;;;;;;6.22;4.07;;;;;;;21.89;46.04;102021.41;5069317;28;20048;-53
2022/05/10 01:36:05;;;;;;;5.30;3.80;;;;;;;21.88;46.14;102015.16;5071469;28;20040;-55
2022/05/10 01:38:58;;;;;;;8.13;4.07;;;;;;;21.88;46.03;102015.16;5068254;28;20495;-51
2022/05/10 01:42:00;;;;;;;6.85;4.35;;;;;;;21.86;45.79;102006.34;5066521;28;20052;-52
2022/05/10 01:44:45;;;;;;;7.38;4.72;;;;;;;21.88;45.90;102006.22;5068490;28;20041;-54
2022/05/10 01:47:35;;;;;;;7.75;4.32;;;;;;;21.85;45.98;102001.94;5064204;28;20442;-50
2022/05/10 01:50:10;;;;;;;6.13;3.83;;;;;;;21.86;45.99;101995.53;5067243;28;20044;-52
2022/05/10 01:52:50;;;;;;;6.75;3.80;;;;;;;21.86;46.03;101994.69;5067631;28;20040;-53
2022/05/10 01:55:27;;;;;;;6.28;3.70;;;;;;;21.85;46.18;101988.44;5069577;28;20048;-53
2022/05/10 01:57:58;;;;;;;5.68;3.33;;;;;;;21.86;46.00;101989.31;5069482;28;20058;-53
2022/05/10 02:00:27;;;;;;;5.25;3.33;;;;;;;21.85;46.23;101976.81;5066748;28;20051;-53
2022/05/10 02:02:58;;;;;;;7.38;4.43;;;;;;;21.85;46.01;101984.91;5064941;28;20050;-53
2022/05/10 02:05:54;;;;;;;6.95;3.97;;;;;;;21.82;46.20;101980.66;5066525;28;20040;-50
2022/05/10 02:08:55;;;;;;;6.65;4.45;;;;;;;21.82;45.89;101969.84;5031115;28;20057;-52
2022/05/10 02:11:22;;;;;;;6.55;3.83;;;;;;;21.84;45.77;101975.13;5062960;28;20155;-52
2022/05/10 02:14:03;;;;;;;5.72;3.55;;;;;;;21.83;45.94;101976.97;5066701;28;20053;-52
2022/05/10 02:16:42;;;;;;;6.60;4.03;;;;;;;21.82;45.88;101972.56;5065363;28;20049;-51
2022/05/10 02:19:24;;;;;;;5.40;3.60;;;;;;;21.82;45.92;101969.00;5070029;28;20123;-51
2022/05/10 02:21:55;;;;;;;7.18;4.20;;;;;;;21.80;46.16;101969.19;5065893;28;20037;-52
2022/05/10 02:24:28;;;;;;;8.40;4.03;;;;;;;21.81;46.31;101965.47;5065776;28;20036;-53
2022/05/10 02:27:01;;;;;;;9.07;3.95;;;;;;;21.80;46.15;101960.22;5063380;28;20040;-53
2022/05/10 02:29:37;;;;;;;6.70;4.00;;;;;;;21.81;46.21;101964.63;5069065;28;20124;-53
2022/05/10 02:35:02;;;;;;;7.18;4.05;;;;;;;21.79;46.08;101955.81;5062387;28;20040;-52
2022/05/10 02:37:29;;;;;;;6.88;3.55;;;;;;;21.80;45.98;101957.53;5060118;28;20055;-54
2022/05/10 02:39:55;;;;;;;6.85;3.80;;;;;;;21.79;46.26;101945.00;5071406;28;20146;-52
2022/05/10 02:42:23;;;;;;;7.05;3.90;;;;;;;21.79;46.01;101953.13;5066273;28;20053;-52
2022/05/10 02:44:54;;;;;;;5.63;3.45;;;;;;;21.77;46.47;101942.47;5069994;28;20048;-54
2022/05/10 02:47:50;;;;;;;7.03;4.03;;;;;;;21.76;46.50;101948.88;5064479;28;20040;-50
2022/05/10 02:50:27;;;;;;;4.55;3.30;;;;;;;21.77;46.20;101949.72;5048825;28;20111;-54
2022/05/10 02:52:54;;;;;;;4.65;3.47;;;;;;;21.77;46.07;101942.47;5065580;28;20066;-50
2022/05/10 02:55:32;;;;;;;6.35;3.50;;;;;;;21.77;46.24;101942.47;5070271;28;20123;-50
2022/05/10 02:58:06;;;;;;;6.80;3.72;;;;;;;21.77;46.35;101944.34;5065075;28;20084;-51
2022/05/10 03:00:33;;;;;;;5.95;3.47;;;;;;;21.77;46.57;101936.25;5064577;28;20139;-52
2022/05/10 03:03:07;;;;;;;5.57;3.55;;;;;;;21.76;46.41;101924.59;5061941;28;20054;-50
2022/05/10 03:05:33;;;;;;;;;;;;;;;21.76;46.46;101931.84;5068394;28;20041;-49
2022/05/10 03:08:00;;;;;;;5.72;3.67;;;;;;;21.78;46.16;101930.69;5065602;28;19924;-51
2022/05/10 03:10:29;;;;;;;7.40;3.45;;;;;;;21.77;46.36;101929.00;5067725;28;20045;-48
2022/05/10 03:12:55;;;;;;;6.40;3.80;;;;;;;21.75;46.60;101922.91;5067740;28;20127;-51
2022/05/10 03:15:22;;;;;;;6.30;3.38;;;;;;;21.75;46.55;101924.72;5066813;28;20048;-52
2022/05/10 03:17:48;;;;;;;6.05;3.45;;;;;;;21.75;46.56;101913.94;5062946;28;20044;-50
2022/05/10 03:20:15;;;;;;;5.65;3.65;;;;;;;21.75;46.47;101908.53;5064799;28;20084;-52
2022/05/10 03:22:48;;;;;;;5.07;3.43;;;;;;;21.74;46.31;101898.75;5066055;28;20048;-52
2022/05/10 03:25:15;;;;;;;4.97;3.55;;;;;;;21.73;46.31;101903.31;5066729;28;20078;-54
2022/05/10 03:27:42;;;;;;;6.60;3.75;;;;;;;21.73;46.54;101903.31;5065443;28;20147;-50
2022/05/10 03:30:09;;;;;;;7.15;3.67;;;;;;;21.72;46.50;101898.91;5065233;28;20055;-54
2022/05/10 03:32:36;;;;;;;6.40;3.65;;;;;;;21.72;46.58;101898.91;5065571;28;20044;-53
2022/05/10 03:35:04;;;;;;;4.55;3.38;;;;;;;21.72;46.41;101896.22;5066851;28;20052;-53
2022/05/10 03:37:32;;;;;;;5.93;3.20;;;;;;;21.73;46.63;101902.47;5062014;28;20044;-52
2022/05/10 03:39:59;;;;;;;7.03;2.97;;;;;;;21.72;46.65;101895.38;5064492;28;20059;-53
2022/05/10 03:42:26;;;;;;;6.55;3.22;;;;;;;21.72;46.44;101893.53;5064060;28;20120;-50
2022/05/10 03:44:53;;;;;;;7.93;3.17;;;;;;;21.71;46.30;101891.84;5062395;28;20056;-50
2022/05/10 03:47:22;;;;;;;6.35;3.70;;;;;;;21.71;46.76;101894.53;5065366;28;20044;-53
2022/05/10 03:49:49;;;;;;;5.82;3.30;;;;;;;21.71;46.61;101885.56;5065322;28;20042;-50
2022/05/10 03:52:15;;;;;;;8.00;2.97;;;;;;;21.71;46.82;101888.25;5069346;28;20052;-52
2022/05/10 03:54:43;;;;;;;4.65;3.53;;;;;;;21.71;46.51;101893.66;5058982;28;20416;-52
2022/05/10 03:57:10;;;;;;;5.00;3.30;;;;;;;21.72;46.86;101895.38;5061823;28;20036;-51
2022/05/10 03:59:41;;;;;;;5.70;3.20;;;;;;;21.70;47.04;101882.00;5066634;28;20044;-52
2022/05/10 04:02:10;;;;;;;20.95;4.18;;;;;;;21.70;46.75;101884.72;5063628;28;20719;-52
2022/05/10 04:04:38;;;;;;;21.38;5.53;;;;;;;21.70;46.99;101884.72;5065196;28;20040;-51
2022/05/10 04:07:05;;;;;;;22.23;5.70;;;;;;;21.72;47.29;101879.19;5062594;28;20052;-52
2022/05/10 04:09:33;;;;;;;19.70;5.53;;;;;;;21.71;47.23;101878.34;5059423;28;20120;-53
2022/05/10 04:12:00;;;;;;;28.88;5.93;;;;;;;21.71;47.31;101874.75;5060237;28;20054;-54
2022/05/10 04:14:27;;;;;;;24.38;6.63;;;;;;;21.70;47.14;101879.31;5058755;28;20063;-52
2022/05/10 04:16:53;;;;;;;29.80;7.25;;;;;;;21.69;46.88;101875.78;5063508;28;20044;-51
2022/05/10 04:19:20;;;;;;;26.95;6.68;;;;;;;21.69;47.03;101874.94;5068193;28;20132;-49
2022/05/10 04:21:49;;;;;;;30.30;7.00;;;;;;;21.69;46.86;101874.94;5067627;28;20044;-50
2022/05/10 04:24:16;;;;;;;26.67;7.25;;;;;;;21.69;47.01;101872.22;5068594;28;20352;-49
2022/05/10 04:26:44;;;;;;;19.42;6.63;;;;;;;21.68;46.70;101875.94;5067311;28;20046;-50
2022/05/10 04:29:10;;;;;;;24.17;7.40;;;;;;;21.68;46.53;101881.34;5071164;28;20048;-49
2022/05/10 04:31:37;;;;;;;21.35;8.15;;;;;;;21.67;46.51;101872.41;5065622;28;20127;-52
2022/05/10 04:34:03;;;;;;;23.55;7.65;;;;;;;21.68;46.33;101870.53;5074358;28;20052;-52
2022/05/10 04:36:30;;;;;;;25.63;8.02;;;;;;;21.67;46.36;101867.00;5070248;28;20046;-50
2022/05/10 04:38:57;;;;;;;23.15;8.20;;;;;;;21.67;46.63;101868.84;5076145;28;20081;-52
2022/05/10 04:41:29;;;;;;;20.63;6.07;;;;;;;21.67;46.50;101863.47;5072250;28;20131;-50
2022/05/10 04:44:01;;;;;;;24.05;7.22;;;;;;;21.68;46.64;101873.25;5071314;28;20049;-50
2022/05/10 04:46:30;;;;;;;18.23;6.32;;;;;;;21.67;46.46;101869.69;5075513;28;20032;-50
2022/05/10 04:48:58;;;;;;;16.00;6.45;;;;;;;21.68;46.28;101866.00;5070440;28;20056;-49
2022/05/10 04:51:25;;;;;;;14.00;6.18;;;;;;;21.67;46.46;101864.31;5073226;28;20052;-53
2022/05/10 04:53:51;;;;;;;18.02;5.85;;;;;;;21.68;46.26;101854.34;5072520;28;20350;-52
2022/05/10 04:56:18;;;;;;;17.40;6.47;;;;;;;21.67;45.97;101860.75;5072757;28;20040;-51
2022/05/10 04:58:45;;;;;;;15.05;6.60;;;;;;;21.68;45.93;101863.28;5076825;28;20411;-51
2022/05/10 05:01:14;;;;;;;13.05;5.30;;;;;;;21.68;46.35;101860.59;5071689;28;20163;-51
2022/05/10 05:03:46;;;;;;;19.40;6.07;;;;;;;21.68;46.01;101851.66;5074240;28;20051;-51
2022/05/10 05:06:13;;;;;;;15.63;6.18;;;;;;;21.68;45.91;101847.09;5076143;28;20092;-51
2022/05/10 05:08:39;;;;;;;24.38;7.25;;;;;;;21.69;46.05;101858.75;5075928;28;20086;-52
2022/05/10 05:11:06;;;;;;;16.95;6.47;;;;;;;21.67;46.05;101850.81;5055745;28;20612;-51
2022/05/10 05:13:33;;;;;;;16.80;6.10;;;;;;;21.69;45.75;101845.25;5073109;28;20176;-55
2022/05/10 05:15:59;;;;;;;15.00;6.00;;;;;;;21.68;45.96;101849.81;5076759;28;20052;-50
2022/05/10 05:18:26;;;;;;;12.15;6.10;;;;;;;21.69;46.07;101842.56;5074915;28;20139;-52
2022/05/10 05:20:53;;;;;;;9.63;5.32;;;;;;;21.69;46.01;101839.84;5075571;28;20128;-53
2022/05/10 05:23:22;;;;;;;14.45;5.90;;;;;;;21.69;45.74;101837.16;5070850;28;20049;-49
2022/05/10 05:25:49;;;;;;;12.88;5.45;;;;;;;21.68;46.02;101847.09;5076377;28;20618;-52
2022/05/10 05:28:15;;;;;;;14.77;5.05;;;;;;;21.70;45.87;101846.94;5075002;28;20058;-52
2022/05/10 05:30:43;;;;;;;12.77;5.57;;;;;;;21.70;45.79;101841.53;5076357;28;20042;-51
2022/05/10 05:33:10;;;;;;;15.23;5.63;;;;;;;21.70;45.71;101836.16;5073079;28;20586;-52
2022/05/10 05:35:37;;;;;;;12.48;5.25;;;;;;;21.72;45.89;101836.00;5074737;28;20052;-52
2022/05/10 05:38:04;;;;;;;11.32;5.13;;;;;;;21.73;45.61;101843.09;5076037;28;20060;-54
2022/05/10 05:40:33;;;;;;;13.27;6.32;;;;;;;21.71;45.63;101835.16;5075040;28;20036;-51
2022/05/10 05:43:00;;;;;;;11.57;4.57;;;;;;;21.74;45.73;101839.38;5072259;28;20044;-51
2022/05/10 05:45:27;;;;;;;12.75;5.10;;;;;;;21.72;45.62;101836.84;5070543;28;20045;-50
2022/05/10 05:47:54;;;;;;;8.88;4.53;;;;;;;21.74;45.50;101834.84;5072284;28;20052;-52
2022/05/10 05:50:23;;;;;;;8.45;4.57;;;;;;;21.74;45.22;101842.09;5069270;28;20043;-53
2022/05/10 05:52:55;;;;;;;12.73;5.28;;;;;;;21.76;45.13;101837.41;5069792;28;20347;-53
2022/05/10 05:55:22;;;;;;;10.57;4.57;;;;;;;21.75;45.08;101832.97;5068799;28;20119;-53
2022/05/10 05:57:48;;;;;;;10.75;4.68;;;;;;;21.75;45.55;101835.69;5070299;28;20033;-49
2022/05/10 06:00:19;;;;;;;12.13;4.80;;;;;;;21.76;45.36;101837.41;5069642;28;20171;-52
2022/05/10 06:02:46;;;;;;;9.85;5.15;;;;;;;21.76;45.62;101832.00;5070943;28;20052;-52
2022/05/10 06:05:13;;;;;;;8.85;4.22;;;;;;;21.77;45.43;101833.69;5063117;28;20056;-52
2022/05/10 06:07:40;;;;;;;10.93;4.47;;;;;;;21.77;45.31;101828.28;5072256;28;20119;-50
2022/05/10 06:10:08;;;;;;;9.20;4.47;;;;;;;21.79;45.46;101831.66;5072137;28;20136;-53
2022/05/10 06:12:34;;;;;;;10.65;4.90;;;;;;;21.80;45.56;101833.38;5069583;28;20048;-52
2022/05/10 06:15:07;;;;;;;11.05;4.80;;;;;;;21.80;45.55;101828.84;5067492;28;20082;-51
2022/05/10 06:17:36;;;;;;;10.85;4.97;;;;;;;21.80;45.50;101826.13;5051091;28;20321;-51
2022/05/10 06:20:06;;;;;;;8.75;4.63;;;;;;;21.80;45.54;101822.59;5071673;28;20052;-50
2022/05/10 06:22:34;;;;;;;11.82;4.57;;;;;;;21.81;45.46;101818.88;5070481;28;20143;-52
2022/05/10 06:25:00;;;;;;;11.40;4.90;;;;;;;21.81;45.37;101819.72;5071814;28;20060;-52
2022/05/10 06:27:28;;;;;;;10.23;4.75;;;;;;;21.81;45.28;101811.63;5067683;28;20435;-51
2022/05/10 06:29:55;;;;;;;9.68;4.38;;;;;;;21.80;45.14;101814.50;5069988;28;20045;-53
2022/05/10 06:32:25;;;;;;;13.45;6.28;;;;;;;21.80;45.34;101807.25;5072208;28;20048;-53
2022/05/10 06:34:53;;;;;;;11.20;4.57;;;;;;;21.81;45.06;101806.22;5071143;28;20048;-53
2022/05/10 06:40:12;;;;;;;10.00;4.43;;;;;;;21.82;45.46;101802.53;5071309;28;20139;-52
2022/05/10 06:42:38;;;;;;;9.68;4.70;;;;;;;21.82;45.24;101797.13;5067601;28;20049;-51
2022/05/10 06:45:09;;;;;;;8.38;4.10;;;;;;;21.82;45.49;101791.72;5068147;28;20078;-53
2022/05/10 06:47:41;;;;;;;8.15;4.28;;;;;;;21.83;45.31;101787.19;5069223;28;20137;-54
2022/05/10 06:50:14;;;;;;;11.50;4.60;;;;;;;21.83;45.07;101784.47;5068863;28;20580;-51
2022/05/10 06:52:41;;;;;;;8.10;4.30;;;;;;;21.83;44.86;101779.94;5067754;28;20143;-52
2022/05/10 06:55:13;;;;;;;10.17;4.67;;;;;;;21.84;44.94;101778.09;5065917;28;20482;-54
2022/05/10 06:57:39;;;;;;;10.02;4.80;;;;;;;21.84;44.98;101780.78;5068672;28;20040;-54
2022/05/10 07:00:08;;;;;;;7.50;4.20;;;;;;;21.84;44.67;101780.78;5068353;28;20138;-51
2022/05/10 07:02:35;;;;;;;7.03;4.47;;;;;;;21.85;45.12;101769.84;5069728;28;20124;-54
2022/05/10 07:05:02;;;;;;;10.25;4.60;;;;;;;21.85;45.02;101775.22;5067303;28;20123;-52
2022/05/10 07:07:29;;;;;;;6.47;3.63;;;;;;;21.86;44.76;101779.63;5069962;28;20492;-52
2022/05/10 07:09:55;;;;;;;9.90;3.85;;;;;;;21.86;44.81;101774.22;5066100;28;20059;-52
2022/05/10 07:12:22;;;;;;;7.68;3.72;;;;;;;21.87;44.94;101770.53;5070173;28;20136;-52
2022/05/10 07:14:48;;;;;;;9.32;4.80;;;;;;;21.89;44.52;101762.28;5068563;28;20056;-53
2022/05/10 07:17:15;;;;;;;7.80;4.03;;;;;;;21.89;44.81;101764.97;5069573;28;20040;-56
2022/05/10 07:19:42;;;;;;;10.85;4.72;;;;;;;21.90;44.81;101758.56;5067965;28;20057;-53
2022/05/10 07:22:08;;;;;;;10.18;4.55;;;;;;;21.90;44.69;101759.41;5067653;28;20335;-54
2022/05/10 07:24:35;;;;;;;7.55;4.65;;;;;;;21.91;44.84;101760.28;5069673;28;20139;-54
2022/05/10 07:27:02;;;;;;;10.40;5.10;;;;;;;21.91;44.89;101749.47;5069594;28;20045;-55
2022/05/10 07:29:28;;;;;;;8.18;4.38;;;;;;;21.91;44.58;101761.13;5070901;28;20488;-54
2022/05/10 07:31:55;;;;;;;7.60;4.05;;;;;;;21.92;44.66;101756.56;5067507;28;20112;-52
2022/05/10 07:34:22;;;;;;;8.93;4.70;;;;;;;21.92;44.72;101748.47;5067077;28;20127;-54
2022/05/10 07:36:48;;;;;;;7.68;4.85;;;;;;;21.93;44.63;101752.84;5069946;28;20040;-53
2022/05/10 07:39:15;;;;;;;7.15;4.13;;;;;;;21.93;44.86;101742.06;5069352;28;20170;-53
2022/05/10 07:41:42;;;;;;;14.27;4.88;;;;;;;21.93;44.40;101742.06;5068016;28;20058;-53
2022/05/10 07:44:09;;;;;;;12.57;6.05;;;;;;;21.94;44.28;101741.88;5067482;28;20048;-54
2022/05/10 07:46:36;;;;;;;11.80;4.95;;;;;;;21.94;44.39;101744.59;5065756;28;20058;-53
2022/05/10 07:49:03;;;;;;;9.45;4.60;;;;;;;21.94;44.72;101736.50;5068405;28;20067;-54
2022/05/10 07:51:30;;;;;;;11.75;4.47;;;;;;;21.94;44.38;101738.34;5068719;28;20135;-54
2022/05/10 07:53:56;;;;;;;7.93;4.80;;;;;;;21.95;44.71;101742.75;5066343;28;20083;-54
2022/05/10 07:56:24;;;;;;;8.43;4.90;;;;;;;21.95;44.60;101734.66;5068744;28;20072;-52
2022/05/10 07:58:54;;;;;;;9.15;4.63;;;;;;;21.96;44.51;101744.44;5066775;28;20045;-53
2022/05/10 08:01:21;;;;;;;8.52;4.88;;;;;;;21.97;44.35;101739.91;5066607;28;20071;-53
2022/05/10 08:03:47;;;;;;;8.25;4.63;;;;;;;21.98;44.36;101738.88;5066872;28;20114;-53
2022/05/10 08:06:16;;;;;;;7.90;4.03;;;;;;;21.98;44.79;101741.59;5066106;28;20175;-53
2022/05/10 08:08:42;;;;;;;8.55;3.90;;;;;;;21.98;44.66;101746.97;5068501;28;20043;-55
2022/05/10 08:11:09;;;;;;;5.43;3.13;;;;;;;21.98;44.86;101734.31;5068649;28;20163;-56
2022/05/10 08:13:39;;;;;;;7.20;3.80;;;;;;;22.00;44.63;101731.50;5066917;28;20071;-54
2022/05/10 08:16:10;;;;;;;6.90;3.92;;;;;;;22.00;44.88;101732.34;5067359;28;20373;-53
2022/05/10 08:18:40;;;;;;;6.95;3.67;;;;;;;22.00;45.06;101721.53;5067889;28;20305;-52
2022/05/10 08:21:07;;;;;;;8.02;3.90;;;;;;;22.01;44.64;101720.53;5070258;28;20079;-53
2022/05/10 08:23:36;;;;;;;8.23;3.65;;;;;;;22.03;44.87;101723.06;5064592;28;20159;-52
2022/05/10 08:26:04;;;;;;;7.45;3.38;;;;;;;22.03;44.95;101709.56;5052506;28;20615;-53
2022/05/10 08:28:32;;;;;;;10.90;3.83;;;;;;;22.03;45.03;101726.63;5049730;28;20148;-55
2022/05/10 08:30:59;;;;;;;7.43;3.13;;;;;;;22.04;45.22;101724.75;5048564;28;20123;-54
2022/05/10 08:33:29;;;;;;;6.63;3.88;;;;;;;22.04;44.97;101728.31;5053105;28;20079;-54
2022/05/10 08:35:57;;;;;;;6.38;3.67;;;;;;;22.05;45.07;101721.06;5051684;28;20127;-56
2022/05/10 08:38:26;;;;;;;8.27;3.92;;;;;;;22.05;45.33;101721.91;5050591;28;20045;-54
2022/05/10 08:41:01;;;;;;;7.38;3.72;;;;;;;22.05;44.92;101719.19;5044708;28;20629;-53
2022/05/10 08:43:35;;;;;;;4.50;3.15;;;;;;;22.07;44.72;101722.59;5051368;28;20416;-54
2022/05/10 08:46:03;;;;;;;6.90;4.03;;;;;;;22.08;44.69;101718.88;5046375;28;20435;-55
2022/05/10 08:48:31;;;;;;;5.93;3.70;;;;;;;22.09;44.58;101715.16;5051668;28;20032;-55
2022/05/10 08:50:59;;;;;;;9.38;3.67;;;;;;;22.09;44.79;101698.97;5052482;28;20523;-56
2022/05/10 08:53:26;;;;;;;8.40;3.58;;;;;;;22.10;44.76;101700.66;5051043;28;20491;-55
2022/05/10 08:56:00;;;;;;;6.32;3.97;;;;;;;22.11;44.41;101705.06;5051548;28;20342;-55
2022/05/10 08:58:57;;;;;;;7.53;3.60;;;;;;;22.12;44.82;101693.25;5053271;28;20049;-56
2022/05/10 09:01:54;;;;;;;10.60;4.05;;;;;;;22.14;44.77;101699.38;5043309;28;20132;-54
2022/05/10 09:04:40;;;;;;;11.30;3.90;;;;;;;22.15;44.68;101703.78;5052405;28;20056;-53
2022/05/10 09:07:38;;;;;;;10.20;4.88;;;;;;;22.16;44.46;101723.53;5050634;28;20045;-53
2022/05/10 09:10:22;;;;;;;18.45;8.52;;;;;;;22.15;44.89;101709.19;5044630;28;20119;-53
2022/05/10 09:12:53;;;;;;;27.40;9.15;;;;;;;22.17;44.92;101711.72;5049750;28;20041;-56
2022/05/10 09:15:20;;;;;;;27.52;9.95;;;;;;;22.17;44.97;101717.09;5050014;28;20324;-53
2022/05/10 09:17:47;;;;;;;20.30;10.85;;;;;;;22.18;45.33;101708.84;5051728;28;20055;-54
2022/05/10 09:20:13;;;;;;;27.45;12.60;;;;;;;22.21;45.44;101704.13;5054049;28;20120;-54
2022/05/10 09:22:57;;;;;;;22.88;11.30;;;;;;;22.21;45.64;101701.44;5054297;28;20116;-54
2022/05/10 09:25:33;;;;;;;22.95;12.05;;;;;;;22.22;45.74;101708.53;5060249;28;20106;-56
2022/05/10 09:28:11;;;;;;;20.95;11.35;;;;;;;22.23;45.69;101721.88;5068089;28;20073;-55
2022/05/10 09:30:38;;;;;;;29.77;12.25;;;;;;;22.24;45.77;101722.72;5068721;28;20145;-52
2022/05/10 09:36:05;;;;;;;25.00;12.13;;;;;;;22.25;45.82;101711.75;5071715;28;20079;-55
2022/05/10 09:38:33;;;;;;;31.10;12.52;;;;;;;22.27;45.61;101706.19;5072161;28;20112;-55
2022/05/10 09:40:59;;;;;;;23.17;12.32;;;;;;;22.28;45.67;101710.59;5070563;28;20056;-54
2022/05/10 09:43:29;;;;;;;25.38;12.38;;;;;;;22.29;45.51;101712.28;5072272;28;20048;-54
2022/05/10 09:46:12;;;;;;;21.90;12.35;;;;;;;22.29;45.83;101709.59;5071006;28;20052;-55
2022/05/10 09:48:42;;;;;;;22.80;11.40;;;;;;;22.30;45.70;101712.13;5071384;28;20046;-52
2022/05/10 09:51:27;;;;;;;24.70;11.82;;;;;;;22.31;45.76;101716.53;5069030;28;20131;-55
2022/05/10 09:53:56;;;;;;;24.38;11.55;;;;;;;22.32;45.93;101707.41;5071309;28;20059;-54
2022/05/10 09:56:22;;;;;;;20.92;11.15;;;;;;;22.33;45.75;101709.09;5071868;28;20054;-54
2022/05/10 09:58:56;;;;;;;22.88;12.00;;;;;;;22.33;45.55;101716.34;5072839;28;20049;-54
2022/05/10 10:01:42;;;;;;;23.10;10.65;;;;;;;22.33;45.72;101719.06;5070045;28;20063;-55
2022/05/10 10:04:32;;;;;;;19.85;10.35;;;;;;;22.36;45.66;101713.34;5074377;28;20067;-52
2022/05/10 10:07:13;;;;;;;21.27;10.35;;;;;;;22.37;45.80;101713.16;5070943;28;20541;-53
2022/05/10 10:09:41;;;;;;;20.85;10.50;;;;;;;22.40;45.81;101712.00;5071028;28;20127;-53
2022/05/10 10:12:35;;;;;;;18.38;10.30;;;;;;;22.42;45.86;101712.69;5071751;28;20793;-54
2022/05/10 10:15:17;;;;;;;19.65;9.80;;;;;;;22.42;45.66;101712.69;5070637;28;20048;-53
2022/05/10 10:18:08;;;;;;;17.45;9.70;;;;;;;22.43;45.36;101711.66;5075387;28;20036;-53
2022/05/10 10:20:47;;;;;;;16.30;9.68;;;;;;;22.46;45.71;101711.34;5070071;28;20071;-52
2022/05/10 10:23:29;;;;;;;17.33;10.07;;;;;;;22.47;45.46;101714.88;5070113;28;20631;-53
2022/05/10 10:26:03;;;;;;;15.52;9.07;;;;;;;22.49;45.34;101712.88;5069350;28;20059;-55
2022/05/10 10:28:35;;;;;;;17.90;8.90;;;;;;;22.48;45.59;101720.16;5069756;28;20041;-55
2022/05/10 10:31:19;;;;;;;16.60;9.07;;;;;;;22.49;45.49;101711.03;5067607;28;20056;-54
2022/05/10 10:34:07;;;;;;;12.50;8.68;;;;;;;22.49;45.52;101711.03;5072167;28;20045;-55
2022/05/10 10:36:41;;;;;;;16.13;8.38;;;;;;;22.50;45.46;101710.00;5069486;28;20072;-55
2022/05/10 10:39:18;;;;;;;13.23;7.90;;;;;;;22.51;45.47;101697.34;5065889;28;20450;-55
2022/05/10 10:41:54;;;;;;;14.13;8.40;;;;;;;22.54;45.49;101699.72;5068504;28;20376;-55
2022/05/10 10:44:22;;;;;;;12.88;7.72;;;;;;;22.56;45.18;101703.13;5070427;28;20046;-56
2022/05/10 10:47:07;;;;;;;15.82;8.13;;;;;;;22.58;45.48;101698.41;5072556;28;20491;-56
2022/05/10 10:49:47;;;;;;;15.70;8.23;;;;;;;22.60;45.15;101701.81;5069378;28;20339;-55
2022/05/10 10:52:15;;;;;;;13.73;7.78;;;;;;;22.62;45.15;101703.31;5069786;28;20072;-55
2022/05/10 10:54:41;;;;;;;12.15;7.10;;;;;;;22.63;45.51;101696.91;5071673;28;20128;-56
2022/05/10 10:57:33;;;;;;;14.20;6.88;;;;;;;22.65;45.19;101694.88;5066211;28;20412;-54
2022/05/10 11:00:08;;;;;;;10.93;7.35;;;;;;;22.69;45.13;101683.75;5068123;28;20048;-55
2022/05/10 11:02:43;;;;;;;12.63;7.25;;;;;;;22.71;45.47;101692.53;5069107;28;20804;-54
2022/05/10 11:05:35;;;;;;;14.10;7.60;;;;;;;22.70;45.29;101694.38;5069804;28;20055;-54
2022/05/10 11:08:17;;;;;;;11.45;6.95;;;;;;;22.72;45.23;101692.38;5069596;28;20124;-54
2022/05/10 11:10:53;;;;;;;13.00;6.78;;;;;;;22.73;45.32;101685.13;5066973;28;20131;-54
2022/05/10 11:13:42;;;;;;;10.75;6.85;;;;;;;22.73;45.21;101682.41;5070455;28;20491;-56
2022/05/10 11:16:14;;;;;;;10.93;6.30;;;;;;;22.74;45.38;101689.50;5071560;28;20426;-55
2022/05/10 11:19:04;;;;;;;11.90;6.97;;;;;;;22.74;44.90;101674.13;5070262;28;20040;-55
2022/05/10 11:21:49;;;;;;;12.27;6.90;;;;;;;22.73;45.28;101691.38;5039337;28;20041;-57
2022/05/10 11:24:34;;;;;;;10.30;6.35;;;;;;;22.74;45.13;101690.34;5071991;28;20044;-56
2022/05/10 11:27:10;;;;;;;9.15;6.50;;;;;;;22.75;45.07;101686.63;5064787;28;20132;-57
2022/05/10 11:29:42;;;;;;;12.15;6.00;;;;;;;22.75;44.91;101691.19;5070536;28;20041;-56
2022/05/10 11:32:21;;;;;;;7.50;5.60;;;;;;;22.76;44.91;101682.09;5062172;28;20095;-56
2022/05/10 11:35:12;;;;;;;12.05;6.05;;;;;;;22.76;45.06;101684.78;5069330;28;20036;-59
2022/05/10 11:38:02;;;;;;;9.82;5.63;;;;;;;22.75;44.99;101697.44;5067321;28;20366;-56
2022/05/10 11:40:45;;;;;;;10.48;5.65;;;;;;;22.77;45.09;101697.28;5064009;28;20354;-56
2022/05/10 11:43:46;;;;;;;10.38;5.90;;;;;;;22.76;45.04;101701.84;5071897;28;20128;-57
2022/05/10 11:46:31;;;;;;;12.13;5.45;;;;;;;22.77;45.32;101675.66;5063271;28;20132;-55
2022/05/10 11:49:16;;;;;;;9.27;5.55;;;;;;;22.78;44.83;101677.34;5064730;28;20040;-55
2022/05/10 11:52:20;;;;;;;9.95;5.63;;;;;;;22.78;44.76;101677.34;5068665;28;20131;-57
2022/05/10 11:55:05;;;;;;;8.02;5.35;;;;;;;22.80;44.80;101673.47;5066900;28;20131;-55